sensor_id;sensor_type;location;lat;lon;timestamp;P1;durP1;ratioP1;P2;durP2;ratioP2
31091;SDS011;67728;53.122;12.776;2023-04-24T00:00:44;291.83;;;56.80;;
31091;SDS011;67728;53.122;12.776;2023-04-24T00:02:16;289.00;;;57.00;;
31091;SDS011;67728;53.122;12.776;2023-04-24T00:03:47;288.20;;;56.30;;
31091;SDS011;67728;53.122;12.776;2023-04-24T00:05:19;290.67;;;63.83;;
31091;SDS011;67728;53.122;12.776;2023-04-24T00:06:51;286.90;;;56.97;;
31091;SDS011;67728;53.122;12.776;2023-04-24T00:08:24;289.60;;;57.13;;
31091;SDS011;67728;53.122;12.776;2023-04-24T00:09:56;288.90;;;57.37;;
31091;SDS011;67728;53.122;12.776;2023-04-24T00:11:26;290.30;;;57.70;;
31091;SDS011;67728;53.122;12.776;2023-04-24T00:12:59;289.83;;;56.90;;
31091;SDS011;67728;53.122;12.776;2023-04-24T00:14:30;289.33;;;56.87;;
31091;SDS011;67728;53.122;12.776;2023-04-24T00:16:04;288.27;;;56.30;;
31091;SDS011;67728;53.122;12.776;2023-04-24T00:17:36;288.10;;;56.60;;
31091;SDS011;67728;53.122;12.776;2023-04-24T00:19:07;287.17;;;56.33;;
31091;SDS011;67728;53.122;12.776;2023-04-24T00:20:39;287.67;;;56.57;;
31091;SDS011;67728;53.122;12.776;2023-04-24T00:22:11;287.63;;;56.57;;
31091;SDS011;67728;53.122;12.776;2023-04-24T00:23:43;287.73;;;57.60;;
31091;SDS011;67728;53.122;12.776;2023-04-24T00:25:15;290.17;;;58.13;;
31091;SDS011;67728;53.122;12.776;2023-04-24T00:26:46;287.43;;;56.93;;
31091;SDS011;67728;53.122;12.776;2023-04-24T00:28:18;287.03;;;57.50;;
31091;SDS011;67728;53.122;12.776;2023-04-24T00:29:50;285.13;;;56.60;;
31091;SDS011;67728;53.122;12.776;2023-04-24T00:31:23;286.33;;;56.83;;
31091;SDS011;67728;53.122;12.776;2023-04-24T00:32:54;284.33;;;58.17;;
31091;SDS011;67728;53.122;12.776;2023-04-24T00:34:26;286.93;;;61.70;;
31091;SDS011;67728;53.122;12.776;2023-04-24T00:35:58;288.07;;;59.80;;
31091;SDS011;67728;53.122;12.776;2023-04-24T00:37:30;289.53;;;59.70;;
31091;SDS011;67728;53.122;12.776;2023-04-24T00:39:00;291.43;;;59.27;;
31091;SDS011;67728;53.122;12.776;2023-04-24T00:40:32;289.83;;;57.80;;
31091;SDS011;67728;53.122;12.776;2023-04-24T00:42:04;291.63;;;60.60;;
31091;SDS011;67728;53.122;12.776;2023-04-24T00:43:36;289.40;;;57.90;;
31091;SDS011;67728;53.122;12.776;2023-04-24T00:45:08;289.70;;;58.27;;
31091;SDS011;67728;53.122;12.776;2023-04-24T00:46:41;292.40;;;58.87;;
31091;SDS011;67728;53.122;12.776;2023-04-24T00:48:13;289.63;;;58.23;;
31091;SDS011;67728;53.122;12.776;2023-04-24T00:49:45;290.03;;;58.00;;
31091;SDS011;67728;53.122;12.776;2023-04-24T00:51:16;291.03;;;58.73;;
31091;SDS011;67728;53.122;12.776;2023-04-24T00:52:48;290.53;;;57.93;;
31091;SDS011;67728;53.122;12.776;2023-04-24T00:54:18;290.50;;;58.27;;
31091;SDS011;67728;53.122;12.776;2023-04-24T00:55:51;291.20;;;57.53;;
31091;SDS011;67728;53.122;12.776;2023-04-24T00:57:22;289.40;;;57.80;;
31091;SDS011;67728;53.122;12.776;2023-04-24T00:58:54;291.93;;;58.13;;
31091;SDS011;67728;53.122;12.776;2023-04-24T01:00:26;288.80;;;57.63;;
31091;SDS011;67728;53.122;12.776;2023-04-24T01:02:00;290.50;;;57.83;;
31091;SDS011;67728;53.122;12.776;2023-04-24T01:03:31;290.47;;;57.50;;
31091;SDS011;67728;53.122;12.776;2023-04-24T01:05:04;291.10;;;58.50;;
31091;SDS011;67728;53.122;12.776;2023-04-24T01:06:37;290.83;;;58.00;;
31091;SDS011;67728;53.122;12.776;2023-04-24T01:08:10;288.73;;;57.73;;
31091;SDS011;67728;53.122;12.776;2023-04-24T01:09:42;289.13;;;57.60;;
31091;SDS011;67728;53.122;12.776;2023-04-24T01:11:17;291.87;;;58.50;;
31091;SDS011;67728;53.122;12.776;2023-04-24T01:12:49;291.30;;;58.47;;
31091;SDS011;67728;53.122;12.776;2023-04-24T01:14:21;290.83;;;58.30;;
31091;SDS011;67728;53.122;12.776;2023-04-24T01:15:53;291.53;;;58.70;;
31091;SDS011;67728;53.122;12.776;2023-04-24T01:17:25;293.50;;;59.47;;
31091;SDS011;67728;53.122;12.776;2023-04-24T01:18:57;293.87;;;61.27;;
31091;SDS011;67728;53.122;12.776;2023-04-24T01:20:28;290.33;;;60.33;;
31091;SDS011;67728;53.122;12.776;2023-04-24T01:22:00;291.00;;;60.00;;
31091;SDS011;67728;53.122;12.776;2023-04-24T01:23:34;288.70;;;60.43;;
31091;SDS011;67728;53.122;12.776;2023-04-24T01:25:07;288.30;;;58.63;;
31091;SDS011;67728;53.122;12.776;2023-04-24T01:26:39;289.93;;;59.40;;
31091;SDS011;67728;53.122;12.776;2023-04-24T01:28:10;285.33;;;59.27;;
31091;SDS011;67728;53.122;12.776;2023-04-24T01:29:44;290.73;;;59.83;;
31091;SDS011;67728;53.122;12.776;2023-04-24T01:31:15;293.77;;;59.87;;
31091;SDS011;67728;53.122;12.776;2023-04-24T01:32:47;291.77;;;59.67;;
31091;SDS011;67728;53.122;12.776;2023-04-24T01:34:19;291.37;;;59.23;;
31091;SDS011;67728;53.122;12.776;2023-04-24T01:35:51;294.30;;;60.40;;
31091;SDS011;67728;53.122;12.776;2023-04-24T01:37:23;293.40;;;60.50;;
31091;SDS011;67728;53.122;12.776;2023-04-24T01:38:58;290.93;;;59.10;;
31091;SDS011;67728;53.122;12.776;2023-04-24T01:40:30;290.90;;;59.20;;
31091;SDS011;67728;53.122;12.776;2023-04-24T01:42:02;293.50;;;59.57;;
31091;SDS011;67728;53.122;12.776;2023-04-24T01:43:35;293.67;;;59.00;;
31091;SDS011;67728;53.122;12.776;2023-04-24T01:45:07;291.67;;;58.20;;
31091;SDS011;67728;53.122;12.776;2023-04-24T01:46:43;293.73;;;58.93;;
31091;SDS011;67728;53.122;12.776;2023-04-24T01:48:15;292.77;;;59.10;;
31091;SDS011;67728;53.122;12.776;2023-04-24T01:49:46;290.67;;;58.80;;
31091;SDS011;67728;53.122;12.776;2023-04-24T01:51:19;294.03;;;60.03;;
31091;SDS011;67728;53.122;12.776;2023-04-24T01:52:50;290.17;;;58.43;;
31091;SDS011;67728;53.122;12.776;2023-04-24T01:54:23;291.83;;;59.40;;
31091;SDS011;67728;53.122;12.776;2023-04-24T01:55:53;293.63;;;59.57;;
31091;SDS011;67728;53.122;12.776;2023-04-24T01:57:25;293.43;;;59.97;;
31091;SDS011;67728;53.122;12.776;2023-04-24T01:58:57;292.40;;;60.00;;
31091;SDS011;67728;53.122;12.776;2023-04-24T02:00:29;293.93;;;60.17;;
31091;SDS011;67728;53.122;12.776;2023-04-24T02:02:00;293.27;;;60.00;;
31091;SDS011;67728;53.122;12.776;2023-04-24T02:03:31;291.57;;;60.03;;
31091;SDS011;67728;53.122;12.776;2023-04-24T02:05:05;291.90;;;62.53;;
31091;SDS011;67728;53.122;12.776;2023-04-24T02:06:36;288.43;;;58.97;;
31091;SDS011;67728;53.122;12.776;2023-04-24T02:08:08;291.00;;;60.33;;
31091;SDS011;67728;53.122;12.776;2023-04-24T02:09:41;288.80;;;58.80;;
31091;SDS011;67728;53.122;12.776;2023-04-24T02:11:12;288.30;;;60.23;;
31091;SDS011;67728;53.122;12.776;2023-04-24T02:12:44;291.40;;;59.17;;
31091;SDS011;67728;53.122;12.776;2023-04-24T02:14:16;291.93;;;58.83;;
31091;SDS011;67728;53.122;12.776;2023-04-24T02:15:48;293.13;;;58.77;;
31091;SDS011;67728;53.122;12.776;2023-04-24T02:17:19;293.90;;;59.20;;
31091;SDS011;67728;53.122;12.776;2023-04-24T02:18:51;294.03;;;58.50;;
31091;SDS011;67728;53.122;12.776;2023-04-24T02:20:23;292.43;;;57.70;;
31091;SDS011;67728;53.122;12.776;2023-04-24T02:21:55;293.40;;;57.77;;
31091;SDS011;67728;53.122;12.776;2023-04-24T02:23:25;294.77;;;58.03;;
31091;SDS011;67728;53.122;12.776;2023-04-24T02:24:59;295.00;;;58.53;;
31091;SDS011;67728;53.122;12.776;2023-04-24T02:26:31;296.40;;;59.60;;
31091;SDS011;67728;53.122;12.776;2023-04-24T02:28:01;291.80;;;57.50;;
31091;SDS011;67728;53.122;12.776;2023-04-24T02:29:33;291.50;;;57.10;;
31091;SDS011;67728;53.122;12.776;2023-04-24T02:31:05;292.07;;;57.27;;
31091;SDS011;67728;53.122;12.776;2023-04-24T02:32:37;290.83;;;56.50;;
31091;SDS011;67728;53.122;12.776;2023-04-24T02:34:09;292.70;;;57.10;;
31091;SDS011;67728;53.122;12.776;2023-04-24T02:35:40;292.43;;;57.40;;
31091;SDS011;67728;53.122;12.776;2023-04-24T02:37:12;294.37;;;57.70;;
31091;SDS011;67728;53.122;12.776;2023-04-24T02:38:44;292.93;;;57.37;;
31091;SDS011;67728;53.122;12.776;2023-04-24T02:40:17;291.97;;;56.97;;
31091;SDS011;67728;53.122;12.776;2023-04-24T02:41:49;291.57;;;57.00;;
31091;SDS011;67728;53.122;12.776;2023-04-24T02:43:20;297.47;;;57.70;;
31091;SDS011;67728;53.122;12.776;2023-04-24T02:44:52;293.03;;;57.27;;
31091;SDS011;67728;53.122;12.776;2023-04-24T02:46:24;293.27;;;56.97;;
31091;SDS011;67728;53.122;12.776;2023-04-24T02:47:56;294.50;;;57.50;;
31091;SDS011;67728;53.122;12.776;2023-04-24T02:49:27;292.57;;;56.70;;
31091;SDS011;67728;53.122;12.776;2023-04-24T02:50:59;294.47;;;58.03;;
31091;SDS011;67728;53.122;12.776;2023-04-24T02:52:31;295.20;;;58.23;;
31091;SDS011;67728;53.122;12.776;2023-04-24T02:54:01;292.27;;;57.57;;
31091;SDS011;67728;53.122;12.776;2023-04-24T02:55:34;292.50;;;57.70;;
31091;SDS011;67728;53.122;12.776;2023-04-24T02:57:06;294.07;;;57.83;;
31091;SDS011;67728;53.122;12.776;2023-04-24T02:58:38;292.80;;;57.87;;
31091;SDS011;67728;53.122;12.776;2023-04-24T03:00:10;292.10;;;57.63;;
31091;SDS011;67728;53.122;12.776;2023-04-24T03:01:41;294.03;;;57.60;;
31091;SDS011;67728;53.122;12.776;2023-04-24T03:03:14;292.57;;;57.43;;
31091;SDS011;67728;53.122;12.776;2023-04-24T03:04:45;290.40;;;56.87;;
31091;SDS011;67728;53.122;12.776;2023-04-24T03:06:18;293.20;;;57.67;;
31091;SDS011;67728;53.122;12.776;2023-04-24T03:07:48;292.63;;;57.80;;
31091;SDS011;67728;53.122;12.776;2023-04-24T03:09:22;292.57;;;57.53;;
31091;SDS011;67728;53.122;12.776;2023-04-24T03:10:55;293.30;;;57.90;;
31091;SDS011;67728;53.122;12.776;2023-04-24T03:12:27;293.60;;;57.73;;
31091;SDS011;67728;53.122;12.776;2023-04-24T03:13:58;290.67;;;57.07;;
31091;SDS011;67728;53.122;12.776;2023-04-24T03:15:30;291.37;;;57.73;;
31091;SDS011;67728;53.122;12.776;2023-04-24T03:17:02;292.20;;;58.50;;
31091;SDS011;67728;53.122;12.776;2023-04-24T03:18:34;291.97;;;58.83;;
31091;SDS011;67728;53.122;12.776;2023-04-24T03:20:06;291.27;;;58.57;;
31091;SDS011;67728;53.122;12.776;2023-04-24T03:21:39;293.90;;;58.53;;
31091;SDS011;67728;53.122;12.776;2023-04-24T03:23:11;292.23;;;58.80;;
31091;SDS011;67728;53.122;12.776;2023-04-24T03:24:43;290.80;;;58.27;;
31091;SDS011;67728;53.122;12.776;2023-04-24T03:26:15;292.07;;;58.63;;
31091;SDS011;67728;53.122;12.776;2023-04-24T03:27:46;292.93;;;65.97;;
31091;SDS011;67728;53.122;12.776;2023-04-24T03:29:18;290.87;;;58.60;;
31091;SDS011;67728;53.122;12.776;2023-04-24T03:30:50;291.47;;;58.43;;
31091;SDS011;67728;53.122;12.776;2023-04-24T03:32:22;292.53;;;59.40;;
31091;SDS011;67728;53.122;12.776;2023-04-24T03:33:53;291.07;;;59.40;;
31091;SDS011;67728;53.122;12.776;2023-04-24T03:35:25;291.47;;;60.03;;
31091;SDS011;67728;53.122;12.776;2023-04-24T03:36:57;290.70;;;60.50;;
31091;SDS011;67728;53.122;12.776;2023-04-24T03:38:28;291.03;;;57.70;;
31091;SDS011;67728;53.122;12.776;2023-04-24T03:39:59;293.10;;;58.87;;
31091;SDS011;67728;53.122;12.776;2023-04-24T03:41:32;290.70;;;57.60;;
31091;SDS011;67728;53.122;12.776;2023-04-24T03:43:03;288.50;;;57.07;;
31091;SDS011;67728;53.122;12.776;2023-04-24T03:44:34;291.97;;;57.50;;
31091;SDS011;67728;53.122;12.776;2023-04-24T03:46:06;291.23;;;58.00;;
31091;SDS011;67728;53.122;12.776;2023-04-24T03:47:39;291.93;;;58.47;;
31091;SDS011;67728;53.122;12.776;2023-04-24T03:49:10;290.00;;;58.70;;
31091;SDS011;67728;53.122;12.776;2023-04-24T03:50:41;291.33;;;58.63;;
31091;SDS011;67728;53.122;12.776;2023-04-24T03:52:13;290.67;;;57.57;;
31091;SDS011;67728;53.122;12.776;2023-04-24T03:53:44;305.83;;;60.33;;
31091;SDS011;67728;53.122;12.776;2023-04-24T03:55:16;290.70;;;57.17;;
31091;SDS011;67728;53.122;12.776;2023-04-24T03:56:49;320.77;;;63.40;;
31091;SDS011;67728;53.122;12.776;2023-04-24T03:58:20;291.20;;;57.40;;
31091;SDS011;67728;53.122;12.776;2023-04-24T03:59:51;290.70;;;57.87;;
31091;SDS011;67728;53.122;12.776;2023-04-24T04:01:23;291.10;;;59.10;;
31091;SDS011;67728;53.122;12.776;2023-04-24T04:02:55;291.83;;;57.63;;
31091;SDS011;67728;53.122;12.776;2023-04-24T04:04:26;291.00;;;60.07;;
31091;SDS011;67728;53.122;12.776;2023-04-24T04:05:57;291.90;;;59.37;;
31091;SDS011;67728;53.122;12.776;2023-04-24T04:07:29;294.07;;;60.57;;
31091;SDS011;67728;53.122;12.776;2023-04-24T04:09:00;294.53;;;60.40;;
31091;SDS011;67728;53.122;12.776;2023-04-24T04:10:31;294.23;;;61.03;;
31091;SDS011;67728;53.122;12.776;2023-04-24T04:12:04;295.37;;;60.73;;
31091;SDS011;67728;53.122;12.776;2023-04-24T04:13:36;291.83;;;59.90;;
31091;SDS011;67728;53.122;12.776;2023-04-24T04:15:08;291.63;;;59.53;;
31091;SDS011;67728;53.122;12.776;2023-04-24T04:16:40;293.10;;;59.90;;
31091;SDS011;67728;53.122;12.776;2023-04-24T04:18:12;291.43;;;59.37;;
31091;SDS011;67728;53.122;12.776;2023-04-24T04:19:43;290.30;;;59.40;;
31091;SDS011;67728;53.122;12.776;2023-04-24T04:21:14;295.53;;;71.77;;
31091;SDS011;67728;53.122;12.776;2023-04-24T04:22:46;290.90;;;62.77;;
31091;SDS011;67728;53.122;12.776;2023-04-24T04:24:18;290.17;;;61.50;;
31091;SDS011;67728;53.122;12.776;2023-04-24T04:25:50;292.20;;;61.93;;
31091;SDS011;67728;53.122;12.776;2023-04-24T04:27:23;292.80;;;67.10;;
31091;SDS011;67728;53.122;12.776;2023-04-24T04:28:55;291.30;;;60.67;;
31091;SDS011;67728;53.122;12.776;2023-04-24T04:30:25;291.30;;;60.53;;
31091;SDS011;67728;53.122;12.776;2023-04-24T04:31:59;293.43;;;62.67;;
31091;SDS011;67728;53.122;12.776;2023-04-24T04:33:31;286.70;;;59.20;;
31091;SDS011;67728;53.122;12.776;2023-04-24T04:35:03;287.07;;;59.27;;
31091;SDS011;67728;53.122;12.776;2023-04-24T04:36:35;293.17;;;60.83;;
31091;SDS011;67728;53.122;12.776;2023-04-24T04:38:10;288.53;;;58.57;;
31091;SDS011;67728;53.122;12.776;2023-04-24T04:39:41;290.37;;;60.63;;
31091;SDS011;67728;53.122;12.776;2023-04-24T04:41:12;294.73;;;69.87;;
31091;SDS011;67728;53.122;12.776;2023-04-24T04:42:45;293.87;;;68.87;;
31091;SDS011;67728;53.122;12.776;2023-04-24T04:44:17;305.23;;;70.77;;
31091;SDS011;67728;53.122;12.776;2023-04-24T04:45:49;289.63;;;59.80;;
31091;SDS011;67728;53.122;12.776;2023-04-24T04:47:22;288.10;;;59.97;;
31091;SDS011;67728;53.122;12.776;2023-04-24T04:48:54;289.07;;;60.70;;
31091;SDS011;67728;53.122;12.776;2023-04-24T04:50:26;288.30;;;60.20;;
31091;SDS011;67728;53.122;12.776;2023-04-24T04:51:58;290.17;;;61.17;;
31091;SDS011;67728;53.122;12.776;2023-04-24T04:53:29;283.50;;;56.53;;
31091;SDS011;67728;53.122;12.776;2023-04-24T04:55:00;287.17;;;58.67;;
31091;SDS011;67728;53.122;12.776;2023-04-24T04:56:32;284.57;;;57.30;;
31091;SDS011;67728;53.122;12.776;2023-04-24T04:58:05;284.27;;;57.00;;
31091;SDS011;67728;53.122;12.776;2023-04-24T04:59:37;284.00;;;57.60;;
31091;SDS011;67728;53.122;12.776;2023-04-24T05:01:09;284.70;;;58.57;;
31091;SDS011;67728;53.122;12.776;2023-04-24T05:02:40;291.23;;;62.03;;
31091;SDS011;67728;53.122;12.776;2023-04-24T05:04:12;291.60;;;65.83;;
31091;SDS011;67728;53.122;12.776;2023-04-24T05:05:44;306.83;;;80.47;;
31091;SDS011;67728;53.122;12.776;2023-04-24T05:07:15;303.33;;;66.67;;
31091;SDS011;67728;53.122;12.776;2023-04-24T05:08:47;298.10;;;60.80;;
31091;SDS011;67728;53.122;12.776;2023-04-24T05:10:19;299.00;;;64.10;;
31091;SDS011;67728;53.122;12.776;2023-04-24T05:11:51;299.73;;;64.17;;
31091;SDS011;67728;53.122;12.776;2023-04-24T05:13:24;301.87;;;65.70;;
31091;SDS011;67728;53.122;12.776;2023-04-24T05:14:56;304.33;;;67.03;;
31091;SDS011;67728;53.122;12.776;2023-04-24T05:16:28;294.20;;;64.23;;
31091;SDS011;67728;53.122;12.776;2023-04-24T05:18:00;297.50;;;66.70;;
31091;SDS011;67728;53.122;12.776;2023-04-24T05:19:33;298.27;;;65.77;;
31091;SDS011;67728;53.122;12.776;2023-04-24T05:21:05;300.23;;;64.57;;
31091;SDS011;67728;53.122;12.776;2023-04-24T05:22:37;297.60;;;64.30;;
31091;SDS011;67728;53.122;12.776;2023-04-24T05:24:09;310.77;;;93.03;;
31091;SDS011;67728;53.122;12.776;2023-04-24T05:25:40;299.87;;;68.90;;
31091;SDS011;67728;53.122;12.776;2023-04-24T05:27:13;297.77;;;66.67;;
31091;SDS011;67728;53.122;12.776;2023-04-24T05:28:46;296.63;;;67.03;;
31091;SDS011;67728;53.122;12.776;2023-04-24T05:30:18;296.10;;;64.07;;
31091;SDS011;67728;53.122;12.776;2023-04-24T05:31:49;296.03;;;64.27;;
31091;SDS011;67728;53.122;12.776;2023-04-24T05:33:21;298.20;;;67.37;;
31091;SDS011;67728;53.122;12.776;2023-04-24T05:34:53;293.43;;;62.50;;
31091;SDS011;67728;53.122;12.776;2023-04-24T05:36:25;296.73;;;64.30;;
31091;SDS011;67728;53.122;12.776;2023-04-24T05:37:57;296.87;;;64.57;;
31091;SDS011;67728;53.122;12.776;2023-04-24T05:39:28;297.10;;;71.97;;
31091;SDS011;67728;53.122;12.776;2023-04-24T05:41:00;304.47;;;70.03;;
31091;SDS011;67728;53.122;12.776;2023-04-24T05:42:32;302.50;;;67.07;;
31091;SDS011;67728;53.122;12.776;2023-04-24T05:44:05;301.67;;;65.87;;
31091;SDS011;67728;53.122;12.776;2023-04-24T05:45:36;298.50;;;65.20;;
31091;SDS011;67728;53.122;12.776;2023-04-24T05:47:09;298.03;;;65.03;;
31091;SDS011;67728;53.122;12.776;2023-04-24T05:48:40;299.10;;;65.67;;
31091;SDS011;67728;53.122;12.776;2023-04-24T05:50:12;296.80;;;66.03;;
31091;SDS011;67728;53.122;12.776;2023-04-24T05:51:45;295.33;;;64.53;;
31091;SDS011;67728;53.122;12.776;2023-04-24T05:53:16;295.23;;;65.27;;
31091;SDS011;67728;53.122;12.776;2023-04-24T05:54:48;293.57;;;70.47;;
31091;SDS011;67728;53.122;12.776;2023-04-24T05:56:20;290.70;;;68.03;;
31091;SDS011;67728;53.122;12.776;2023-04-24T05:57:52;289.30;;;65.90;;
31091;SDS011;67728;53.122;12.776;2023-04-24T05:59:25;292.73;;;68.00;;
31091;SDS011;67728;53.122;12.776;2023-04-24T06:00:56;291.40;;;70.33;;
31091;SDS011;67728;53.122;12.776;2023-04-24T06:02:28;289.87;;;65.33;;
31091;SDS011;67728;53.122;12.776;2023-04-24T06:04:02;292.63;;;70.83;;
31091;SDS011;67728;53.122;12.776;2023-04-24T06:05:34;293.47;;;67.50;;
31091;SDS011;67728;53.122;12.776;2023-04-24T06:07:06;295.33;;;66.57;;
31091;SDS011;67728;53.122;12.776;2023-04-24T06:08:37;302.77;;;73.37;;
31091;SDS011;67728;53.122;12.776;2023-04-24T06:10:09;298.10;;;66.57;;
31091;SDS011;67728;53.122;12.776;2023-04-24T06:11:41;297.30;;;74.80;;
31091;SDS011;67728;53.122;12.776;2023-04-24T06:13:13;291.63;;;67.33;;
31091;SDS011;67728;53.122;12.776;2023-04-24T06:14:46;291.47;;;68.73;;
31091;SDS011;67728;53.122;12.776;2023-04-24T06:16:17;295.37;;;69.43;;
31091;SDS011;67728;53.122;12.776;2023-04-24T06:17:48;300.40;;;66.60;;
31091;SDS011;67728;53.122;12.776;2023-04-24T06:19:20;301.60;;;66.57;;
31091;SDS011;67728;53.122;12.776;2023-04-24T06:20:52;300.67;;;67.90;;
31091;SDS011;67728;53.122;12.776;2023-04-24T06:22:25;292.87;;;66.63;;
31091;SDS011;67728;53.122;12.776;2023-04-24T06:23:56;293.57;;;66.47;;
31091;SDS011;67728;53.122;12.776;2023-04-24T06:25:28;296.70;;;66.63;;
31091;SDS011;67728;53.122;12.776;2023-04-24T06:27:00;302.67;;;68.77;;
31091;SDS011;67728;53.122;12.776;2023-04-24T06:28:32;299.97;;;67.77;;
31091;SDS011;67728;53.122;12.776;2023-04-24T06:30:07;301.83;;;68.50;;
31091;SDS011;67728;53.122;12.776;2023-04-24T06:31:40;300.20;;;67.25;;
31091;SDS011;67728;53.122;12.776;2023-04-24T06:33:11;303.90;;;68.53;;
31091;SDS011;67728;53.122;12.776;2023-04-24T06:34:43;304.27;;;67.93;;
31091;SDS011;67728;53.122;12.776;2023-04-24T06:36:15;301.27;;;68.13;;
31091;SDS011;67728;53.122;12.776;2023-04-24T06:37:46;299.10;;;67.07;;
31091;SDS011;67728;53.122;12.776;2023-04-24T06:39:18;301.17;;;67.57;;
31091;SDS011;67728;53.122;12.776;2023-04-24T06:40:50;302.37;;;69.77;;
31091;SDS011;67728;53.122;12.776;2023-04-24T06:42:21;302.87;;;68.17;;
31091;SDS011;67728;53.122;12.776;2023-04-24T06:43:54;303.67;;;71.20;;
31091;SDS011;67728;53.122;12.776;2023-04-24T06:45:27;304.07;;;70.07;;
31091;SDS011;67728;53.122;12.776;2023-04-24T06:46:59;302.70;;;70.17;;
31091;SDS011;67728;53.122;12.776;2023-04-24T06:48:31;301.47;;;68.47;;
31091;SDS011;67728;53.122;12.776;2023-04-24T06:50:02;303.43;;;70.97;;
31091;SDS011;67728;53.122;12.776;2023-04-24T06:51:35;302.77;;;70.00;;
31091;SDS011;67728;53.122;12.776;2023-04-24T06:53:06;305.53;;;72.40;;
31091;SDS011;67728;53.122;12.776;2023-04-24T06:54:38;301.97;;;71.40;;
31091;SDS011;67728;53.122;12.776;2023-04-24T06:56:10;300.33;;;69.70;;
31091;SDS011;67728;53.122;12.776;2023-04-24T06:57:42;324.63;;;78.67;;
31091;SDS011;67728;53.122;12.776;2023-04-24T06:59:14;301.27;;;72.27;;
31091;SDS011;67728;53.122;12.776;2023-04-24T07:00:47;302.73;;;71.90;;
31091;SDS011;67728;53.122;12.776;2023-04-24T07:02:18;304.70;;;71.30;;
31091;SDS011;67728;53.122;12.776;2023-04-24T07:03:50;304.77;;;70.13;;
31091;SDS011;67728;53.122;12.776;2023-04-24T07:05:22;304.97;;;73.30;;
31091;SDS011;67728;53.122;12.776;2023-04-24T07:06:54;301.40;;;71.13;;
31091;SDS011;67728;53.122;12.776;2023-04-24T07:08:27;298.57;;;71.70;;
31091;SDS011;67728;53.122;12.776;2023-04-24T07:10:00;295.27;;;73.37;;
31091;SDS011;67728;53.122;12.776;2023-04-24T07:11:34;294.20;;;72.63;;
31091;SDS011;67728;53.122;12.776;2023-04-24T07:13:06;296.73;;;70.80;;
31091;SDS011;67728;53.122;12.776;2023-04-24T07:14:38;297.37;;;70.60;;
31091;SDS011;67728;53.122;12.776;2023-04-24T07:16:12;293.77;;;69.83;;
31091;SDS011;67728;53.122;12.776;2023-04-24T07:17:44;294.93;;;71.33;;
31091;SDS011;67728;53.122;12.776;2023-04-24T07:19:15;295.00;;;70.00;;
31091;SDS011;67728;53.122;12.776;2023-04-24T07:20:47;298.13;;;74.07;;
31091;SDS011;67728;53.122;12.776;2023-04-24T07:22:20;302.33;;;83.30;;
31091;SDS011;67728;53.122;12.776;2023-04-24T07:23:52;297.03;;;71.67;;
31091;SDS011;67728;53.122;12.776;2023-04-24T07:25:26;296.03;;;71.67;;
31091;SDS011;67728;53.122;12.776;2023-04-24T07:26:57;296.43;;;71.40;;
31091;SDS011;67728;53.122;12.776;2023-04-24T07:28:31;298.70;;;76.33;;
31091;SDS011;67728;53.122;12.776;2023-04-24T07:30:02;311.47;;;88.07;;
31091;SDS011;67728;53.122;12.776;2023-04-24T07:31:36;301.43;;;76.07;;
31091;SDS011;67728;53.122;12.776;2023-04-24T07:33:08;310.70;;;97.27;;
31091;SDS011;67728;53.122;12.776;2023-04-24T07:34:43;297.70;;;76.47;;
31091;SDS011;67728;53.122;12.776;2023-04-24T07:36:14;295.17;;;72.60;;
31091;SDS011;67728;53.122;12.776;2023-04-24T07:37:49;296.43;;;74.87;;
31091;SDS011;67728;53.122;12.776;2023-04-24T07:39:20;308.60;;;84.90;;
31091;SDS011;67728;53.122;12.776;2023-04-24T07:40:52;313.30;;;89.40;;
31091;SDS011;67728;53.122;12.776;2023-04-24T07:42:24;310.90;;;86.37;;
31091;SDS011;67728;53.122;12.776;2023-04-24T07:43:56;312.13;;;88.27;;
31091;SDS011;67728;53.122;12.776;2023-04-24T07:45:27;307.90;;;84.20;;
31091;SDS011;67728;53.122;12.776;2023-04-24T07:47:00;309.73;;;85.37;;
31091;SDS011;67728;53.122;12.776;2023-04-24T07:48:32;310.63;;;87.60;;
31091;SDS011;67728;53.122;12.776;2023-04-24T07:50:04;313.73;;;92.27;;
31091;SDS011;67728;53.122;12.776;2023-04-24T07:51:37;309.07;;;84.70;;
31091;SDS011;67728;53.122;12.776;2023-04-24T07:53:09;311.53;;;88.00;;
31091;SDS011;67728;53.122;12.776;2023-04-24T07:54:40;301.80;;;83.17;;
31091;SDS011;67728;53.122;12.776;2023-04-24T07:56:12;299.03;;;84.97;;
31091;SDS011;67728;53.122;12.776;2023-04-24T07:57:44;303.20;;;78.70;;
31091;SDS011;67728;53.122;12.776;2023-04-24T07:59:16;304.60;;;86.40;;
31091;SDS011;67728;53.122;12.776;2023-04-24T08:00:48;313.57;;;96.57;;
31091;SDS011;67728;53.122;12.776;2023-04-24T08:02:21;303.20;;;84.13;;
31091;SDS011;67728;53.122;12.776;2023-04-24T08:03:56;307.43;;;86.50;;
31091;SDS011;67728;53.122;12.776;2023-04-24T08:05:28;310.70;;;88.47;;
31091;SDS011;67728;53.122;12.776;2023-04-24T08:06:59;309.03;;;86.07;;
31091;SDS011;67728;53.122;12.776;2023-04-24T08:08:31;301.10;;;84.07;;
31091;SDS011;67728;53.122;12.776;2023-04-24T08:10:03;308.93;;;86.67;;
31091;SDS011;67728;53.122;12.776;2023-04-24T08:11:35;308.93;;;86.33;;
31091;SDS011;67728;53.122;12.776;2023-04-24T08:13:07;321.30;;;112.30;;
31091;SDS011;67728;53.122;12.776;2023-04-24T08:14:38;319.37;;;110.37;;
31091;SDS011;67728;53.122;12.776;2023-04-24T08:16:10;315.23;;;99.57;;
31091;SDS011;67728;53.122;12.776;2023-04-24T08:17:43;309.67;;;87.73;;
31091;SDS011;67728;53.122;12.776;2023-04-24T08:19:15;307.67;;;90.40;;
31091;SDS011;67728;53.122;12.776;2023-04-24T08:20:46;304.40;;;89.07;;
31091;SDS011;67728;53.122;12.776;2023-04-24T08:22:18;309.90;;;89.30;;
31091;SDS011;67728;53.122;12.776;2023-04-24T08:23:50;313.03;;;91.33;;
31091;SDS011;67728;53.122;12.776;2023-04-24T08:25:21;310.73;;;90.50;;
31091;SDS011;67728;53.122;12.776;2023-04-24T08:26:54;317.80;;;108.80;;
31091;SDS011;67728;53.122;12.776;2023-04-24T08:28:28;308.97;;;89.57;;
31091;SDS011;67728;53.122;12.776;2023-04-24T08:29:59;310.67;;;91.93;;
31091;SDS011;67728;53.122;12.776;2023-04-24T08:31:31;303.67;;;88.03;;
31091;SDS011;67728;53.122;12.776;2023-04-24T08:33:04;306.10;;;86.27;;
31091;SDS011;67728;53.122;12.776;2023-04-24T08:34:36;311.03;;;88.27;;
31091;SDS011;67728;53.122;12.776;2023-04-24T08:36:08;311.83;;;88.83;;
31091;SDS011;67728;53.122;12.776;2023-04-24T08:37:39;311.57;;;88.30;;
31091;SDS011;67728;53.122;12.776;2023-04-24T08:39:11;312.77;;;91.00;;
31091;SDS011;67728;53.122;12.776;2023-04-24T08:40:43;311.27;;;87.53;;
31091;SDS011;67728;53.122;12.776;2023-04-24T08:42:16;310.67;;;87.57;;